Time;durP1;ratioP1;P1;durP2;ratioP2;P2;SDS_P1;SDS_P2;PMS_P1;PMS_P2;Temp;Humidity;BMP_temperature;BMP_pressure;BME280_temperature;BME280_humidity;BME280_pressure;Samples;Min_cycle;Max_cycle;Signal;HPM_P1;HPM_P2
2023/11/08 00:02:19;;;;;;;4.93;2.42;;;9.00;99.90;;;;;;5019581;28;20025;-79
2023/11/08 00:04:45;;;;;;;8.88;3.35;;;9.00;99.90;;;;;;5017977;28;20022;-82
2023/11/08 00:07:11;;;;;;;7.20;3.45;;;9.40;99.90;;;;;;5019255;28;20475;-81
2023/11/08 00:09:36;;;;;;;6.72;3.33;;;9.00;99.90;;;;;;5019654;28;20030;-82
2023/11/08 00:12:03;;;;;;;8.20;3.50;;;9.00;99.90;;;;;;5019028;28;20053;-81
2023/11/08 00:14:28;;;;;;;8.43;3.47;;;8.90;99.90;;;;;;5019354;28;20018;-81
2023/11/08 00:16:56;;;;;;;8.35;3.53;;;8.90;99.90;;;;;;5019041;28;20018;-80
2023/11/08 00:19:21;;;;;;;7.78;3.60;;;8.90;99.90;;;;;;5017673;28;20028;-79
2023/11/08 00:21:47;;;;;;;12.13;3.72;;;8.80;99.90;;;;;;5016990;28;20468;-81
2023/11/08 00:24:12;;;;;;;6.43;4.35;;;8.70;99.90;;;;;;5016712;28;20026;-80
2023/11/08 00:26:38;;;;;;;9.05;4.25;;;8.60;99.90;;;;;;5016873;28;20042;-80
2023/11/08 00:29:03;;;;;;;10.35;4.10;;;8.60;99.90;;;;;;5017344;28;20018;-79
2023/11/08 00:31:29;;;;;;;10.65;5.15;;;8.70;99.90;;;;;;5018337;28;20022;-80
2023/11/08 00:33:55;;;;;;;7.38;4.30;;;8.80;99.90;;;;;;5018602;28;20036;-80
2023/11/08 00:36:20;;;;;;;9.02;4.53;;;8.60;99.90;;;;;;5018317;28;20464;-81
2023/11/08 00:38:46;;;;;;;8.70;4.80;;;8.60;99.90;;;;;;5017299;28;20478;-81
2023/11/08 00:41:13;;;;;;;11.25;4.68;;;8.60;99.90;;;;;;5017003;28;20053;-80
2023/11/08 00:43:39;;;;;;;10.05;4.90;;;8.60;99.90;;;;;;5017836;28;20137;-79
2023/11/08 00:46:08;;;;;;;11.23;5.07;;;8.60;99.90;;;;;;5017171;28;20492;-80
2023/11/08 00:48:34;;;;;;;13.05;4.78;;;8.30;99.90;;;;;;5017752;28;20033;-80
2023/11/08 00:51:01;;;;;;;9.30;4.70;;;8.60;99.90;;;;;;5016986;28;20033;-81
2023/11/08 00:53:26;;;;;;;9.05;4.72;;;8.60;99.90;;;;;;5017874;28;20519;-80
2023/11/08 00:55:52;;;;;;;6.85;4.13;;;8.60;99.90;;;;;;5017737;28;20117;-81
2023/11/08 00:58:17;;;;;;;11.98;4.47;;;8.60;99.90;;;;;;5017372;28;20022;-80
2023/11/08 01:00:43;;;;;;;8.43;4.90;;;8.60;99.90;;;;;;5016907;28;20026;-80
2023/11/08 01:03:08;;;;;;;10.45;4.30;;;8.60;99.90;;;;;;5017089;28;20037;-81
2023/11/08 01:05:35;;;;;;;9.40;5.07;;;8.60;99.90;;;;;;5016121;28;20045;-79
2023/11/08 01:08:00;;;;;;;9.25;4.00;;;8.60;99.90;;;;;;5016279;28;20030;-81
2023/11/08 01:10:26;;;;;;;6.70;4.20;;;8.60;99.90;;;;;;5017086;28;20041;-80
2023/11/08 01:12:53;;;;;;;10.95;4.68;;;8.60;99.90;;;;;;5017669;28;20019;-80
2023/11/08 01:15:20;;;;;;;10.98;4.18;;;8.70;99.90;;;;;;5016878;28;20029;-80
2023/11/08 01:17:46;;;;;;;12.52;4.53;;;8.70;99.90;;;;;;5017505;28;20108;-82
2023/11/08 01:20:12;;;;;;;9.40;4.68;;;8.70;99.90;;;;;;5016622;28;20033;-81
2023/11/08 01:22:38;;;;;;;9.13;4.25;;;8.60;99.90;;;;;;5017528;28;20052;-80
2023/11/08 01:25:04;;;;;;;11.95;4.65;;;8.70;99.90;;;;;;5016520;28;20046;-80
2023/11/08 01:27:29;;;;;;;8.88;4.50;;;8.60;99.90;;;;;;5016926;28;20109;-80
2023/11/08 01:29:55;;;;;;;8.20;4.00;;;8.60;99.90;;;;;;5016211;28;20022;-80
2023/11/08 01:32:21;;;;;;;7.00;4.20;;;8.60;99.90;;;;;;5016413;28;20026;-81
2023/11/08 01:34:46;;;;;;;10.48;4.35;;;8.60;99.90;;;;;;5016270;28;20164;-80
2023/11/08 01:37:12;;;;;;;8.35;4.28;;;8.60;99.90;;;;;;5016667;28;20038;-80
2023/11/08 01:39:37;;;;;;;6.53;3.60;;;8.70;99.90;;;;;;5016032;28;20033;-81
2023/11/08 01:42:03;;;;;;;10.93;4.43;;;8.60;99.90;;;;;;5016265;28;20061;-80
2023/11/08 01:44:29;;;;;;;4.85;3.33;;;8.60;99.90;;;;;;5016027;28;20030;-81
2023/11/08 01:46:55;;;;;;;7.65;3.10;;;8.70;99.90;;;;;;5016234;28;20435;-81
2023/11/08 01:49:23;;;;;;;10.85;3.47;;;8.70;99.90;;;;;;5016292;28;20030;-80
2023/11/08 01:51:49;;;;;;;11.80;4.00;;;8.80;99.90;;;;;;5016542;28;20490;-80
2023/11/08 01:54:19;;;;;;;9.23;3.20;;;8.80;99.90;;;;;;5015603;28;20034;-80
2023/11/08 01:56:46;;;;;;;8.55;3.08;;;8.80;99.90;;;;;;5015991;28;20030;-80
2023/11/08 01:59:15;;;;;;;8.73;3.75;;;8.80;99.90;;;;;;5015379;28;20072;-80
2023/11/08 02:01:41;;;;;;;6.60;3.58;;;8.80;99.90;;;;;;5015427;28;20045;-80
2023/11/08 02:04:07;;;;;;;8.90;3.55;;;8.80;99.90;;;;;;5014830;28;20034;-80
2023/11/08 02:06:32;;;;;;;6.03;3.72;;;8.80;99.90;;;;;;5015503;28;20041;-80
2023/11/08 02:09:00;;;;;;;9.32;3.88;;;8.80;99.90;;;;;;5015611;28;20037;-80
2023/11/08 02:11:27;;;;;;;8.23;3.60;;;8.90;99.90;;;;;;5015247;28;20021;-80
2023/11/08 02:13:53;;;;;;;7.90;3.38;;;8.90;99.90;;;;;;5015906;28;20048;-80
2023/11/08 02:16:18;;;;;;;9.43;3.47;;;8.90;99.90;;;;;;5015569;28;20439;-80
2023/11/08 02:18:44;;;;;;;7.60;3.13;;;8.80;99.90;;;;;;5015836;28;20041;-80
2023/11/08 02:21:13;;;;;;;7.32;3.22;;;8.80;99.90;;;;;;5015147;28;20026;-80
2023/11/08 02:23:38;;;;;;;8.77;3.30;;;8.70;99.90;;;;;;5015575;28;20037;-80
2023/11/08 02:26:04;;;;;;;10.70;4.53;;;8.80;99.90;;;;;;5014835;28;20042;-80
2023/11/08 02:28:31;;;;;;;11.80;4.07;;;8.80;99.90;;;;;;5005918;28;20451;-80
2023/11/08 02:30:58;;;;;;;9.00;3.67;;;8.90;99.90;;;;;;5014911;28;20026;-80
2023/11/08 02:33:25;;;;;;;8.48;3.53;;;8.90;99.90;;;;;;5015902;28;20022;-80
2023/11/08 02:35:51;;;;;;;8.82;3.67;;;8.90;99.90;;;;;;5015734;28;20025;-80
2023/11/08 02:38:17;;;;;;;5.80;4.18;;;8.90;99.90;;;;;;5016399;28;20030;-80
2023/11/08 02:40:43;;;;;;;6.32;3.42;;;8.90;99.90;;;;;;5016021;28;20442;-80
2023/11/08 02:43:09;;;;;;;7.32;4.00;;;8.90;99.90;;;;;;5015289;28;20038;-80
2023/11/08 02:45:35;;;;;;;8.48;3.70;;;8.90;99.90;;;;;;5015031;28;20033;-80
2023/11/08 02:48:02;;;;;;;8.20;4.22;;;8.90;99.90;;;;;;5015142;28;20034;-80
2023/11/08 02:50:29;;;;;;;5.30;3.80;;;8.90;99.90;;;;;;5015587;28;20487;-80
2023/11/08 02:52:55;;;;;;;7.18;3.95;;;8.90;99.90;;;;;;5016012;28;20367;-80
2023/11/08 02:55:21;;;;;;;7.90;3.63;;;8.90;99.90;;;;;;5016382;28;20041;-80
2023/11/08 02:57:47;;;;;;;7.72;4.13;;;8.90;99.90;;;;;;5015274;28;20037;-80
2023/11/08 03:00:14;;;;;;;7.35;4.68;;;8.90;99.90;;;;;;5015619;28;20030;-79
2023/11/08 03:02:41;;;;;;;8.25;4.10;;;9.00;99.90;;;;;;5015041;28;20029;-80
2023/11/08 03:05:07;;;;;;;11.55;4.20;;;9.00;99.90;;;;;;5014732;28;20030;-79
2023/11/08 03:07:33;;;;;;;6.68;4.30;;;9.00;99.90;;;;;;5015499;28;20538;-80
2023/11/08 03:09:59;;;;;;;10.40;4.28;;;8.90;99.90;;;;;;5014667;28;20030;-80
2023/11/08 03:12:25;;;;;;;12.05;4.70;;;8.90;99.90;;;;;;5015055;28;20034;-80
2023/11/08 03:14:51;;;;;;;7.65;4.22;;;8.90;99.90;;;;;;5015342;28;20022;-80
2023/11/08 03:17:18;;;;;;;11.27;4.70;;;8.90;99.90;;;;;;5016448;28;20028;-80
2023/11/08 03:19:43;;;;;;;9.45;4.68;;;9.00;99.90;;;;;;5015707;28;20026;-80
2023/11/08 03:22:12;;;;;;;10.02;4.82;;;9.00;99.90;;;;;;5016703;28;20105;-81
2023/11/08 03:24:38;;;;;;;12.05;4.75;;;8.90;99.90;;;;;;5017457;28;20531;-81
2023/11/08 03:27:04;;;;;;;7.93;3.72;;;9.00;99.90;;;;;;5014073;28;20077;-79
2023/11/08 03:29:31;;;;;;;9.45;3.92;;;9.00;99.90;;;;;;5018297;28;20371;-80
2023/11/08 03:31:57;;;;;;;9.15;4.10;;;9.00;99.90;;;;;;5017971;28;20028;-79
2023/11/08 03:34:26;;;;;;;9.85;3.85;;;9.00;99.90;;;;;;5018564;28;20026;-79
2023/11/08 03:36:52;;;;;;;6.68;3.65;;;9.00;99.90;;;;;;5018267;28;20088;-79
2023/11/08 03:39:18;;;;;;;9.52;4.32;;;9.00;99.90;;;;;;5018775;28;20117;-79
2023/11/08 03:41:45;;;;;;;6.15;3.72;;;9.00;99.90;;;;;;5018530;28;20028;-79
2023/11/08 03:44:11;;;;;;;9.00;4.03;;;9.00;99.90;;;;;;5018535;28;20077;-79
2023/11/08 03:46:36;;;;;;;8.18;3.20;;;9.00;99.90;;;;;;5017799;28;20061;-79
2023/11/08 03:49:02;;;;;;;7.03;3.42;;;9.00;99.90;;;;;;5017724;28;20028;-80
2023/11/08 03:51:28;;;;;;;11.13;3.72;;;8.90;99.90;;;;;;5017323;28;20053;-80
2023/11/08 03:53:54;;;;;;;12.90;3.50;;;9.00;99.90;;;;;;5018110;28;20029;-79
2023/11/08 03:56:19;;;;;;;10.13;3.78;;;9.00;99.90;;;;;;5018183;28;20033;-79
2023/11/08 03:58:45;;;;;;;7.47;3.53;;;8.90;99.90;;;;;;5017364;28;20030;-79
2023/11/08 04:01:10;;;;;;;5.43;3.70;;;9.00;99.90;;;;;;5018197;28;20385;-79
2023/11/08 04:03:36;;;;;;;9.65;3.58;;;9.00;99.90;;;;;;5018065;28;20030;-79
2023/11/08 04:06:02;;;;;;;9.20;3.22;;;9.00;99.90;;;;;;5017752;28;20022;-78
2023/11/08 04:08:28;;;;;;;8.02;3.28;;;9.00;99.90;;;;;;5018022;28;20026;-79
2023/11/08 04:10:53;;;;;;;7.32;2.95;;;9.00;99.90;;;;;;5018007;28;20125;-79
2023/11/08 04:13:19;;;;;;;16.77;3.10;;;9.00;99.90;;;;;;5018110;28;20026;-79
2023/11/08 04:15:45;;;;;;;7.32;2.50;;;9.00;99.90;;;;;;5017930;28;20041;-80
2023/11/08 04:18:11;;;;;;;5.18;2.42;;;9.00;99.90;;;;;;5017784;28;20030;-80
2023/11/08 04:20:38;;;;;;;9.07;2.60;;;9.00;99.90;;;;;;5017740;28;20060;-80
2023/11/08 04:23:04;;;;;;;10.25;3.00;;;9.00;99.90;;;;;;5018069;28;20037;-80
2023/11/08 04:25:30;;;;;;;11.35;2.80;;;8.90;99.90;;;;;;5017909;28;20042;-80
2023/11/08 04:27:55;;;;;;;12.23;3.00;;;8.90;99.90;;;;;;5018648;28;20054;-80
2023/11/08 04:30:21;;;;;;;10.85;2.70;;;8.90;99.90;;;;;;5021270;28;20028;-80
2023/11/08 04:32:47;;;;;;;7.20;3.47;;;8.80;99.90;;;;;;5020373;28;20483;-81
2023/11/08 04:35:15;;;;;;;10.50;3.47;;;8.80;99.90;;;;;;5019460;28;20095;-82
2023/11/08 04:37:42;;;;;;;10.60;3.83;;;8.70;99.90;;;;;;5019508;28;20026;-81
2023/11/08 04:40:09;;;;;;;8.48;3.97;;;8.60;99.90;;;;;;5019551;28;20368;-81
2023/11/08 04:42:35;;;;;;;9.63;3.90;;;8.60;99.90;;;;;;5018877;28;20029;-82
2023/11/08 04:45:01;;;;;;;11.10;4.13;;;8.70;99.90;;;;;;5018926;28;20037;-82
2023/11/08 04:47:26;;;;;;;9.80;4.15;;;8.60;99.90;;;;;;5019554;28;20034;-81
2023/11/08 04:49:53;;;;;;;12.32;3.83;;;8.60;99.90;;;;;;5019261;28;20052;-81
2023/11/08 04:52:20;;;;;;;10.82;3.83;;;8.60;99.90;;;;;;5019544;28;20384;-80
2023/11/08 04:54:48;;;;;;;7.13;3.80;;;8.60;99.90;;;;;;5019185;28;20453;-80
2023/11/08 04:57:18;;;;;;;9.95;4.15;;;8.60;99.90;;;;;;5019243;28;20534;-81
2023/11/08 04:59:46;;;;;;;13.38;4.15;;;8.60;99.90;;;;;;5019327;28;20482;-81
2023/11/08 05:02:13;;;;;;;9.35;3.70;;;8.60;99.90;;;;;;5019549;28;20053;-82
2023/11/08 05:04:39;;;;;;;7.80;3.95;;;8.60;99.90;;;;;;5019373;28;20456;-81
2023/11/08 05:07:06;;;;;;;15.38;4.30;;;8.70;99.90;;;;;;5022691;28;20029;-82
2023/11/08 05:09:33;;;;;;;12.32;4.00;;;8.70;99.90;;;;;;5018828;28;20452;-81
2023/11/08 05:11:58;;;;;;;6.90;3.42;;;8.70;99.90;;;;;;5019221;28;20026;-81
2023/11/08 05:14:24;;;;;;;6.10;3.05;;;8.70;99.90;;;;;;5018128;28;20036;-81
2023/11/08 05:16:50;;;;;;;6.78;3.38;;;8.70;99.90;;;;;;5018864;28;20383;-80
2023/11/08 05:19:16;;;;;;;8.93;3.75;;;8.70;99.90;;;;;;5019287;28;20113;-81
2023/11/08 05:21:48;;;;;;;8.95;3.78;;;8.70;99.90;;;;;;5019358;28;20499;-79
2023/11/08 05:24:13;;;;;;;14.18;4.35;;;8.70;99.90;;;;;;5020323;28;20037;-80
2023/11/08 05:26:39;;;;;;;10.52;3.75;;;8.70;99.90;;;;;;5018666;28;20117;-81
2023/11/08 05:29:05;;;;;;;11.80;3.55;;;8.70;99.90;;;;;;5019743;28;20022;-81
2023/11/08 05:31:33;;;;;;;8.57;3.42;;;8.70;99.90;;;;;;5019291;28;20032;-81
2023/11/08 05:34:01;;;;;;;8.52;3.90;;;8.60;99.90;;;;;;5018964;28;20029;-82
2023/11/08 05:36:26;;;;;;;8.48;3.40;;;8.60;99.90;;;;;;5018619;28;20021;-80
2023/11/08 05:38:52;;;;;;;8.75;3.58;;;8.60;99.90;;;;;;5018928;28;20040;-81
2023/11/08 05:41:19;;;;;;;8.13;4.03;;;8.50;99.90;;;;;;5018185;28;20030;-82
2023/11/08 05:43:44;;;;;;;9.80;4.00;;;8.50;99.90;;;;;;5018187;28;20030;-81
2023/11/08 05:46:11;;;;;;;9.32;3.83;;;8.50;99.90;;;;;;5018129;28;20377;-81
2023/11/08 05:48:37;;;;;;;9.82;3.88;;;8.40;99.90;;;;;;5017953;28;20050;-82
2023/11/08 05:51:05;;;;;;;8.23;3.85;;;8.40;99.90;;;;;;5017859;28;20040;-81
2023/11/08 05:53:31;;;;;;;6.68;3.40;;;8.40;99.90;;;;;;5018667;28;20030;-81
2023/11/08 05:55:57;;;;;;;7.40;3.78;;;8.40;99.90;;;;;;5018728;28;20022;-81
2023/11/08 05:58:22;;;;;;;9.80;4.25;;;8.40;99.90;;;;;;5017933;28;20030;-81
2023/11/08 06:00:48;;;;;;;8.52;3.88;;;8.40;99.90;;;;;;5018325;28;20072;-81
2023/11/08 06:03:14;;;;;;;7.65;4.10;;;8.40;99.90;;;;;;5018148;28;20033;-81
2023/11/08 06:05:40;;;;;;;9.90;4.32;;;8.50;99.90;;;;;;5016724;28;20022;-82
2023/11/08 06:08:06;;;;;;;14.25;4.72;;;8.50;99.90;;;;;;5017525;28;20028;-81
2023/11/08 06:10:33;;;;;;;8.23;4.80;;;8.50;99.90;;;;;;5017225;28;20026;-81
2023/11/08 06:12:58;;;;;;;8.13;4.03;;;8.50;99.90;;;;;;5017391;28;20117;-81
2023/11/08 06:15:24;;;;;;;10.77;4.68;;;8.50;99.90;;;;;;5018660;28;20069;-81
2023/11/08 06:17:52;;;;;;;11.80;5.05;;;8.50;99.90;;;;;;5019173;28;20034;-82
2023/11/08 06:20:19;;;;;;;7.47;4.28;;;8.50;99.90;;;;;;5019050;28;20117;-81
2023/11/08 06:22:45;;;;;;;10.68;4.75;;;8.60;99.90;;;;;;5019579;28;20057;-82
2023/11/08 06:25:10;;;;;;;10.45;4.20;;;8.50;99.90;;;;;;5018893;28;20492;-81
2023/11/08 06:27:37;;;;;;;11.02;4.38;;;8.50;99.90;;;;;;5019671;28;20441;-81
2023/11/08 06:30:03;;;;;;;9.43;4.43;;;8.50;99.90;;;;;;5018856;28;20029;-81
2023/11/08 06:32:28;;;;;;;13.90;4.88;;;8.50;99.90;;;;;;5018376;28;20026;-81
2023/11/08 06:35:00;;;;;;;13.38;4.25;;;8.50;99.90;;;;;;5018974;28;20017;-81
2023/11/08 06:37:26;;;;;;;9.85;4.38;;;8.60;99.90;;;;;;5019146;28;20498;-81
2023/11/08 06:39:52;;;;;;;11.77;4.38;;;8.60;99.90;;;;;;5018473;28;20018;-81
2023/11/08 06:42:17;;;;;;;8.80;4.97;;;8.60;99.90;;;;;;5018430;28;20037;-81
2023/11/08 06:44:43;;;;;;;8.27;5.13;;;8.60;99.90;;;;;;5018840;28;20065;-81
2023/11/08 06:47:08;;;;;;;12.40;4.88;;;8.50;99.90;;;;;;5019184;28;20025;-81
2023/11/08 06:49:35;;;;;;;10.30;5.38;;;8.50;99.90;;;;;;5019262;28;20109;-80
2023/11/08 06:52:01;;;;;;;12.20;5.10;;;8.60;99.90;;;;;;5018737;28;20018;-81
2023/11/08 06:54:26;;;;;;;9.52;4.15;;;8.50;99.90;;;;;;5018867;28;20037;-80
2023/11/08 06:56:52;;;;;;;10.50;3.58;;;8.50;99.90;;;;;;5018862;28;20113;-81
2023/11/08 06:59:17;;;;;;;12.73;3.97;;;8.50;99.90;;;;;;5018450;28;20025;-79
2023/11/08 07:01:44;;;;;;;11.02;3.70;;;8.50;99.90;;;;;;5018999;28;20042;-81
2023/11/08 07:04:11;;;;;;;10.52;3.53;;;8.50;99.90;;;;;;5021483;28;20033;-79
2023/11/08 07:06:36;;;;;;;8.48;3.60;;;8.50;99.90;;;;;;5021199;28;20026;-80
2023/11/08 07:09:02;;;;;;;9.93;3.33;;;8.50;99.90;;;;;;5019887;28;20128;-80
2023/11/08 07:11:28;;;;;;;9.75;3.20;;;8.60;99.90;;;;;;5018214;28;20439;-81
2023/11/08 07:13:54;;;;;;;10.70;3.47;;;8.70;99.90;;;;;;5020094;28;20034;-80
2023/11/08 07:16:19;;;;;;;10.10;3.45;;;8.70;99.90;;;;;;5019033;28;20030;-79
2023/11/08 07:18:45;;;;;;;13.32;3.70;;;8.80;99.90;;;;;;5017490;28;20026;-80
2023/11/08 07:21:19;;;;;;;13.10;3.63;;;8.90;99.90;;;;;;5019409;28;20025;-79
2023/11/08 07:23:45;;;;;;;11.40;3.67;;;9.00;99.90;;;;;;5035714;28;20099;-79
2023/11/08 07:26:13;;;;;;;10.63;3.70;;;9.30;99.90;;;;;;5037890;28;20487;-82
2023/11/08 07:28:40;;;;;;;7.80;2.97;;;9.40;99.90;;;;;;5038738;28;20021;-80
2023/11/08 07:31:08;;;;;;;7.40;2.65;;;9.50;99.90;;;;;;5037479;28;20032;-80
2023/11/08 07:33:34;;;;;;;11.73;2.88;;;9.70;99.90;;;;;;5037778;28;20060;-80
2023/11/08 07:36:00;;;;;;;6.75;2.25;;;9.60;99.90;;;;;;5037107;28;20033;-81
2023/11/08 07:38:26;;;;;;;8.57;3.08;;;9.30;99.90;;;;;;5037751;28;20122;-81
2023/11/08 07:40:51;;;;;;;7.65;2.88;;;9.20;99.90;;;;;;5037536;28;20029;-82
2023/11/08 07:43:17;;;;;;;6.95;2.92;;;9.10;99.90;;;;;;5037934;28;20029;-80
2023/11/08 07:45:43;;;;;;;11.77;3.60;;;9.00;99.90;;;;;;5038746;28;20025;-81
2023/11/08 07:48:08;;;;;;;8.57;2.63;;;9.20;99.90;;;;;;5038286;28;20490;-82
2023/11/08 07:50:34;;;;;;;9.07;2.75;;;9.00;99.90;;;;;;5037052;28;20074;-82
2023/11/08 07:53:01;;;;;;;8.52;2.38;;;9.00;99.90;;;;;;5037695;28;20025;-82
2023/11/08 07:55:26;;;;;;;9.73;2.75;;;9.00;99.90;;;;;;5036981;28;20036;-82
2023/11/08 07:57:52;;;;;;;10.55;2.78;;;9.10;99.90;;;;;;5036785;28;20033;-80
2023/11/08 08:00:22;;;;;;;10.77;3.15;;;9.40;99.90;;;;;;5037014;28;20025;-81
2023/11/08 08:02:48;;;;;;;8.23;2.97;;;9.70;99.90;;;;;;5036314;28;20026;-81
2023/11/08 08:05:14;;;;;;;5.35;2.35;;;9.90;99.90;;;;;;5035043;28;20495;-82
2023/11/08 08:07:39;;;;;;;8.82;2.90;;;10.40;92.00;;;;;;5037098;28;20026;-83
2023/11/08 08:10:06;;;;;;;10.77;2.60;;;11.10;58.70;;;;;;5037100;28;20483;-82
2023/11/08 08:12:33;;;;;;;5.10;2.17;;;11.00;24.30;;;;;;5036418;28;20489;-82
2023/11/08 08:14:59;;;;;;;7.20;2.53;;;11.00;25.70;;;;;;5036216;28;20049;-82
2023/11/08 08:17:25;;;;;;;12.10;3.00;;;11.00;25.90;;;;;;5037648;28;20109;-81
2023/11/08 08:19:53;;;;;;;8.63;2.60;;;10.80;29.50;;;;;;5036567;28;20502;-82
2023/11/08 08:22:20;;;;;;;7.60;2.35;;;11.00;33.00;;;;;;5036652;28;20448;-82
2023/11/08 08:24:47;;;;;;;7.97;2.78;;;11.20;17.60;;;;;;5036433;28;20028;-82
2023/11/08 08:27:12;;;;;;;5.35;2.53;;;11.10;2.60;;;;;;5036554;28;20037;-82
2023/11/08 08:29:38;;;;;;;7.20;2.63;;;10.80;18.70;;;;;;5036867;28;20041;-82
2023/11/08 08:32:04;;;;;;;11.27;2.42;;;10.60;24.60;;;;;;5036286;28;20044;-81
2023/11/08 08:34:30;;;;;;;6.25;2.58;;;10.40;44.30;;;;;;5031007;28;20041;-80
2023/11/08 08:36:56;;;;;;;11.15;3.03;;;10.40;50.50;;;;;;5025717;28;20026;-83
2023/11/08 08:39:27;;;;;;;7.65;2.10;;;10.30;61.30;;;;;;5024622;28;20040;-88
2023/11/08 08:41:53;;;;;;;7.65;2.53;;;11.00;40.70;;;;;;5026628;28;20030;-85
2023/11/08 08:44:19;;;;;;;7.65;2.63;;;11.90;1.00;;;;;;5036730;28;20036;-83
2023/11/08 08:46:45;;;;;;;7.95;2.63;;;12.20;1.00;;;;;;5026153;28;20061;-87
2023/11/08 08:49:12;;;;;;;6.32;2.30;;;12.50;1.00;;;;;;5038214;28;20088;-86
2023/11/08 08:51:38;;;;;;;6.40;2.80;;;12.50;1.00;;;;;;5039067;28;20095;-81
2023/11/08 08:54:06;;;;;;;8.23;2.30;;;11.90;1.00;;;;;;5027742;28;20029;-82
2023/11/08 08:56:33;;;;;;;9.23;2.58;;;12.50;1.00;;;;;;5032708;28;20026;-83
2023/11/08 08:58:58;;;;;;;8.00;2.13;;;12.90;1.00;;;;;;5036126;28;20030;-81
2023/11/08 09:01:24;;;;;;;5.72;2.30;;;12.70;1.00;;;;;;5037865;28;20033;-83
2023/11/08 09:03:50;;;;;;;7.32;2.50;;;12.50;1.00;;;;;;5031245;28;20037;-81
2023/11/08 09:06:20;;;;;;;6.18;1.98;;;12.80;1.00;;;;;;5020122;28;20048;-82
2023/11/08 09:08:47;;;;;;;7.63;2.58;;;12.50;99.90;;;;;;5029597;28;20064;-83
2023/11/08 09:11:13;;;;;;;6.97;1.92;;;12.30;1.00;;;;;;5025481;28;20439;-79
2023/11/08 09:13:39;;;;;;;6.68;2.30;;;12.70;1.00;;;;;;5023546;28;20049;-81
2023/11/08 09:16:07;;;;;;;6.15;2.13;;;12.90;99.90;;;;;;5037346;28;20034;-83
2023/11/08 09:18:33;;;;;;;10.20;2.35;;;13.30;99.90;;;;;;5034623;28;20471;-82
2023/11/08 09:21:00;;;;;;;9.10;2.28;;;14.00;99.90;;;;;;5023992;28;20038;-82
2023/11/08 09:23:28;;;;;;;7.85;2.45;;;13.90;99.90;;;;;;5026891;28;20033;-85
2023/11/08 09:25:54;;;;;;;12.55;2.50;;;13.60;99.90;;;;;;5035308;28;20049;-81
2023/11/08 09:28:19;;;;;;;7.22;2.13;;;13.60;99.90;;;;;;5031069;28;20033;-86
2023/11/08 09:30:45;;;;;;;6.78;2.05;;;12.90;99.90;;;;;;5032813;28;20022;-86
2023/11/08 09:33:12;;;;;;;6.30;2.30;;;12.70;1.00;;;;;;5031812;28;20030;-86
2023/11/08 09:35:37;;;;;;;8.07;2.33;;;12.50;1.00;;;;;;5025141;28;20034;-84
2023/11/08 09:38:03;;;;;;;7.45;2.47;;;12.20;1.00;;;;;;5035994;28;20560;-85
2023/11/08 09:40:29;;;;;;;9.57;2.20;;;12.00;1.00;;;;;;5034766;28;20021;-83
2023/11/08 09:42:56;;;;;;;6.47;1.90;;;11.70;1.00;;;;;;5029366;28;20040;-85
2023/11/08 09:45:28;;;;;;;6.38;2.17;;;11.60;1.00;;;;;;5023478;28;20064;-86
2023/11/08 09:47:53;;;;;;;10.02;2.40;;;11.50;1.00;;;;;;5035581;28;20071;-84
2023/11/08 09:50:23;;;;;;;7.07;2.00;;;11.50;1.00;;;;;;5036510;28;20116;-83
2023/11/08 09:52:49;;;;;;;12.63;3.05;;;11.50;1.00;;;;;;5037095;28;20104;-83
2023/11/08 09:55:17;;;;;;;7.85;1.98;;;11.40;1.00;;;;;;5037272;28;20021;-82
2023/11/08 09:57:43;;;;;;;10.13;2.38;;;11.40;1.00;;;;;;5034414;28;20029;-83
2023/11/08 10:00:10;;;;;;;7.47;2.03;;;12.00;1.00;;;;;;5037220;28;20419;-81
2023/11/08 10:02:38;;;;;;;8.02;2.67;;;12.40;1.00;;;;;;5037087;28;20029;-82
2023/11/08 10:05:05;;;;;;;7.20;1.85;;;12.80;1.00;;;;;;5035045;28;20029;-82
2023/11/08 10:07:31;;;;;;;8.23;2.08;;;13.20;99.90;;;;;;5035546;28;20048;-81
2023/11/08 10:09:56;;;;;;;7.40;2.30;;;13.30;99.90;;;;;;5033993;28;20030;-82
2023/11/08 10:12:22;;;;;;;7.18;1.35;;;13.30;99.90;;;;;;5033138;28;20026;-81
2023/11/08 10:14:58;;;;;;;6.22;1.70;;;13.50;1.00;;;;;;5034275;28;20017;-79
2023/11/08 10:17:41;;;;;;;5.93;1.65;;;13.60;1.00;;;;;;5014597;28;20045;-81
2023/11/08 10:20:10;;;;;;;7.85;2.20;;;13.10;99.90;;;;;;5031929;28;20038;-78
2023/11/08 10:22:36;;;;;;;6.03;1.83;;;12.50;99.90;;;;;;5033351;28;20029;-81
2023/11/08 10:25:03;;;;;;;6.57;1.90;;;12.10;1.00;;;;;;5025041;28;20065;-79
2023/11/08 10:27:31;;;;;;;4.60;1.52;;;12.10;1.00;;;;;;5014990;28;20431;-77
2023/11/08 10:30:19;;;;;;;7.60;2.13;;;12.20;1.00;;;;;;5020542;28;20033;-81
2023/11/08 10:32:46;;;;;;;7.10;1.83;;;11.90;1.00;;;;;;5033788;28;20032;-83
2023/11/08 10:35:19;;;;;;;10.18;1.90;;;12.00;1.00;;;;;;5037545;28;20025;-83
2023/11/08 10:37:48;;;;;;;9.20;2.30;;;12.00;1.00;;;;;;5034023;28;20381;-82
2023/11/08 10:40:14;;;;;;;5.50;2.05;;;12.20;1.00;;;;;;5034545;28;20040;-82
2023/11/08 10:42:48;;;;;;;6.22;1.60;;;12.20;1.00;;;;;;5027296;28;20077;-81
2023/11/08 10:45:14;;;;;;;;;;;12.20;1.00;;;;;;5015829;28;20030;-80
2023/11/08 10:47:40;;;;;;;8.05;2.03;;;12.20;1.00;;;;;;5023844;28;19948;-79
2023/11/08 10:50:09;;;;;;;11.80;1.95;;;12.10;1.00;;;;;;5033735;28;20476;-78
2023/11/08 10:52:35;;;;;;;7.68;1.85;;;12.10;1.00;;;;;;5024559;28;20036;-81
2023/11/08 10:55:04;;;;;;;9.98;2.05;;;12.60;1.00;;;;;;5038541;28;20097;-87
2023/11/08 10:57:32;;;;;;;8.10;2.15;;;13.20;99.90;;;;;;5034361;28;20017;-86
2023/11/08 11:00:00;;;;;;;6.97;1.95;;;13.60;55.00;;;;;;5024846;28;20064;-81
2023/11/08 11:02:51;;;;;;;6.93;2.13;;;13.80;1.00;;;;;;5022660;28;20029;-83
2023/11/08 11:05:21;;;;;;;10.75;1.98;;;13.90;90.30;;;;;;5022977;28;20034;-84
2023/11/08 11:07:48;;;;;;;6.82;1.73;;;13.90;99.90;;;;;;5033603;28;20419;-85
2023/11/08 11:10:15;;;;;;;8.75;1.95;;;13.90;99.90;;;;;;5035262;28;20483;-81
2023/11/08 11:12:56;;;;;;;5.47;1.60;;;13.50;99.90;;;;;;5032296;28;20021;-81
2023/11/08 11:18:32;;;;;;;8.73;1.60;;;13.20;99.90;;;;;;5115832;22;20428;-69
2023/11/08 11:21:09;;;;;;;7.35;1.98;;;12.80;99.90;;;;;;5109628;28;20031;-69
2023/11/08 11:23:41;;;;;;;5.65;1.77;;;12.70;99.90;;;;;;5109866;28;20059;-69
2023/11/08 11:26:10;;;;;;;8.88;1.95;;;13.00;1.00;;;;;;5109893;28;20497;-69
2023/11/08 11:28:55;;;;;;;8.93;1.70;;;13.10;99.90;;;;;;5112036;28;20039;-69
2023/11/08 11:31:40;;;;;;;5.20;2.00;;;12.90;99.90;;;;;;5110000;28;20024;-68
2023/11/08 11:39:42;;;;;;;5.97;1.67;;;12.80;1.00;;;;;;5111607;27;20841;-67
2023/11/08 11:42:16;;;;;;;10.20;1.50;;;13.10;1.00;;;;;;5106261;28;20024;-67
2023/11/08 11:44:55;;;;;;;6.07;1.85;;;13.30;99.90;;;;;;5091641;28;20032;-67
2023/11/08 11:47:30;;;;;;;6.50;1.70;;;13.20;99.90;;;;;;5090972;28;20032;-67
2023/11/08 11:50:00;;;;;;;7.93;1.70;;;13.60;99.90;;;;;;5091004;28;20032;-67
2023/11/08 11:52:28;;;;;;;8.38;2.00;;;13.60;99.90;;;;;;5096712;28;20482;-69
2023/11/08 11:54:55;;;;;;;8.45;1.92;;;13.60;99.90;;;;;;5102394;28;20032;-67
2023/11/08 11:57:23;;;;;;;10.88;2.08;;;13.60;1.00;;;;;;5090802;28;20028;-67
2023/11/08 11:59:51;;;;;;;5.20;1.40;;;13.40;99.90;;;;;;5099158;28;20042;-67
2023/11/08 12:02:17;;;;;;;6.60;1.40;;;13.40;1.00;;;;;;5096935;28;20034;-68
2023/11/08 12:04:47;;;;;;;9.45;2.35;;;13.10;1.00;;;;;;5100602;28;20020;-69
2023/11/08 12:07:15;;;;;;;8.73;1.63;;;12.90;99.90;;;;;;5107009;28;20420;-68
2023/11/08 12:09:41;;;;;;;9.60;1.70;;;12.90;99.90;;;;;;5089970;28;20028;-67
2023/11/08 12:12:08;;;;;;;10.43;1.85;;;13.10;1.00;;;;;;5090727;28;20425;-67
2023/11/08 12:14:36;;;;;;;10.15;2.20;;;13.00;23.50;;;;;;5090974;28;20485;-68
2023/11/08 12:17:07;;;;;;;6.15;1.77;;;13.20;99.90;;;;;;5090653;28;20482;-68
2023/11/08 12:19:33;;;;;;;5.28;1.63;;;13.30;1.00;;;;;;5090524;28;20028;-68
2023/11/08 12:22:00;;;;;;;7.55;1.67;;;13.50;99.90;;;;;;5107270;28;20036;-68
2023/11/08 12:24:30;;;;;;;5.57;1.70;;;13.70;1.00;;;;;;5109201;28;20103;-68
2023/11/08 12:26:55;;;;;;;10.35;1.55;;;13.50;1.00;;;;;;5098025;28;20028;-67
2023/11/08 12:29:22;;;;;;;3.95;1.40;;;13.10;99.90;;;;;;5093287;28;20023;-68
2023/11/08 12:31:48;;;;;;;6.53;1.48;;;12.90;1.00;;;;;;5110807;28;20032;-67
2023/11/08 12:34:14;;;;;;;6.78;1.40;;;12.80;1.00;;;;;;5109274;28;20039;-67
2023/11/08 12:36:40;;;;;;;4.90;1.20;;;12.90;1.00;;;;;;5109308;28;20118;-67
2023/11/08 12:39:13;;;;;;;3.35;1.60;;;12.80;99.90;;;;;;5109660;28;20124;-67
2023/11/08 12:44:22;;;;;;;5.00;1.33;;;12.50;99.90;;;;;;5104570;27;20401;-68
2023/11/08 12:47:06;;;;;;;5.35;1.25;;;12.60;99.90;;;;;;5101072;28;20073;-67
2023/11/08 12:49:33;;;;;;;7.00;1.45;;;12.50;1.00;;;;;;5095976;28;20430;-68
2023/11/08 12:52:07;;;;;;;5.22;1.45;;;12.30;99.90;;;;;;5106596;28;20416;-69
2023/11/08 12:54:33;;;;;;;9.88;2.00;;;12.40;1.00;;;;;;5093277;28;20085;-67
2023/11/08 12:56:58;;;;;;;5.90;1.73;;;12.50;99.90;;;;;;5105877;28;20111;-67
2023/11/08 12:59:24;;;;;;;5.70;1.50;;;12.60;1.00;;;;;;5111655;28;20106;-67
2023/11/08 13:02:10;;;;;;;6.45;1.90;;;12.70;1.00;;;;;;5094355;28;20020;-68
2023/11/08 13:04:40;;;;;;;5.00;1.42;;;12.90;99.90;;;;;;5097879;28;20028;-69